createdAt,value
2018-11-02T00:01:18.348Z,5.97
2018-11-02T00:03:45.984Z,5.95
2018-11-02T00:06:15.734Z,6.03
2018-11-02T00:08:43.159Z,5.83
2018-11-02T00:11:11.613Z,5.95
2018-11-02T00:13:39.167Z,6.03
2018-11-02T00:16:06.661Z,6.45
2018-11-02T00:18:34.196Z,5.35
2018-11-02T00:21:01.673Z,5.65
2018-11-02T00:23:29.086Z,5.95
2018-11-02T00:25:56.520Z,6.37
2018-11-02T00:28:24.154Z,5.55
2018-11-02T00:30:54.475Z,5.67
2018-11-02T00:33:21.899Z,5.42
2018-11-02T00:35:49.308Z,6.12
2018-11-02T00:38:16.944Z,5.42
2018-11-02T00:40:44.407Z,5.47
2018-11-02T00:43:11.858Z,5.80
2018-11-02T00:45:39.319Z,5.30
2018-11-02T00:48:06.778Z,5.15
2018-11-02T00:50:34.226Z,5.37
2018-11-02T00:53:02.233Z,4.90
2018-11-02T00:55:29.634Z,5.83
2018-11-02T00:57:57.037Z,5.15
2018-11-02T01:00:24.497Z,5.62
2018-11-02T01:02:51.969Z,5.87
2018-11-02T01:05:19.406Z,5.42
2018-11-02T01:07:46.844Z,4.93
2018-11-02T01:10:14.251Z,4.75
2018-11-02T01:12:41.725Z,5.20
2018-11-02T01:15:09.774Z,4.67
2018-11-02T01:17:37.273Z,4.70
2018-11-02T01:20:06.706Z,4.95
2018-11-02T01:22:34.331Z,5.00
2018-11-02T01:25:02.105Z,4.50
2018-11-02T01:27:29.427Z,4.50
2018-11-02T01:29:56.858Z,4.20
2018-11-02T01:32:24.537Z,4.70
2018-11-02T01:34:52.004Z,3.92
2018-11-02T01:37:20.080Z,3.67
2018-11-02T01:39:47.435Z,3.40
2018-11-02T01:42:14.794Z,3.72
2018-11-02T01:44:42.242Z,3.47
2018-11-02T01:47:10.298Z,3.67
2018-11-02T01:49:37.709Z,2.65
2018-11-02T01:52:05.231Z,2.77
2018-11-02T01:54:32.723Z,3.00
2018-11-02T01:57:00.058Z,3.25
2018-11-02T01:59:27.474Z,2.87
2018-11-02T02:01:56.173Z,2.87
2018-11-02T02:04:23.760Z,2.50
2018-11-02T02:06:51.411Z,2.12
2018-11-02T02:09:18.987Z,2.60
2018-11-02T02:11:46.372Z,2.72
2018-11-02T02:14:13.687Z,2.30
2018-11-02T02:16:41.087Z,2.22
2018-11-02T02:19:08.490Z,1.90
2018-11-02T02:21:35.851Z,2.58
2018-11-02T02:24:03.304Z,2.30
2018-11-02T02:26:30.771Z,2.20
2018-11-02T02:28:58.877Z,2.30
2018-11-02T02:31:26.271Z,2.95
2018-11-02T02:33:54.487Z,2.47
2018-11-02T02:36:21.969Z,2.42
2018-11-02T02:38:49.430Z,2.50
2018-11-02T02:41:17.149Z,2.55
2018-11-02T02:43:44.825Z,2.35
2018-11-02T02:46:12.261Z,2.77
2018-11-02T02:48:39.641Z,2.42
2018-11-02T02:51:07.049Z,2.58
2018-11-02T02:53:34.532Z,2.40
2018-11-02T02:56:02.425Z,3.65
2018-11-02T02:58:29.871Z,2.60
2018-11-02T03:00:57.211Z,2.60
2018-11-02T03:03:24.636Z,2.27
2018-11-02T03:05:52.050Z,2.50
2018-11-02T03:08:19.631Z,2.40
2018-11-02T03:10:47.035Z,2.80
2018-11-02T03:13:14.351Z,2.70
2018-11-02T03:15:41.747Z,2.77
2018-11-02T03:18:10.913Z,2.40
2018-11-02T03:20:38.248Z,2.70
2018-11-02T03:23:05.694Z,3.00
2018-11-02T03:25:33.023Z,2.67
2018-11-02T03:28:00.339Z,2.90
2018-11-02T03:30:27.672Z,3.20
2018-11-02T03:32:54.985Z,3.67
2018-11-02T03:35:22.350Z,3.65
2018-11-02T03:37:49.702Z,3.50
2018-11-02T03:40:17.174Z,3.83
2018-11-02T03:42:48.414Z,3.37
2018-11-02T03:45:15.869Z,4.40
2018-11-02T03:47:43.390Z,4.92
2018-11-02T03:50:10.914Z,4.58
2018-11-02T03:52:38.320Z,3.65
2018-11-02T03:55:05.762Z,4.83
2018-11-02T03:57:33.085Z,4.62
2018-11-02T04:00:00.332Z,4.25
2018-11-02T04:02:27.606Z,5.12
2018-11-02T04:04:54.921Z,5.40
2018-11-02T04:07:22.230Z,5.10
2018-11-02T04:09:49.524Z,5.60
2018-11-02T04:12:16.911Z,5.17
2018-11-02T04:14:44.926Z,4.80
2018-11-02T04:17:12.224Z,4.70
2018-11-02T04:19:39.518Z,5.53
2018-11-02T04:22:06.781Z,5.22
2018-11-02T04:24:34.059Z,6.03
2018-11-02T04:27:02.363Z,5.97
2018-11-02T04:29:29.649Z,5.67
2018-11-02T04:31:56.922Z,6.67
2018-11-02T04:34:24.260Z,5.72
2018-11-02T04:36:51.547Z,6.30
2018-11-02T04:39:18.991Z,6.47
2018-11-02T04:41:46.252Z,6.83
2018-11-02T04:44:14.055Z,7.15
2018-11-02T04:46:41.373Z,6.65
2018-11-02T04:49:09.075Z,6.50
2018-11-02T04:51:36.539Z,6.55
2018-11-02T04:54:03.994Z,6.78
2018-11-02T04:56:31.402Z,7.08
2018-11-02T04:58:58.705Z,7.37
2018-11-02T05:01:26.039Z,6.60
2018-11-02T05:03:53.315Z,7.00
2018-11-02T05:06:20.775Z,6.95
2018-11-02T05:08:48.072Z,7.50
2018-11-02T05:11:15.740Z,8.08
2018-11-02T05:13:43.240Z,8.18
2018-11-02T05:16:10.559Z,7.85
2018-11-02T05:18:37.847Z,8.65
2018-11-02T05:21:05.766Z,9.00
2018-11-02T05:23:33.002Z,8.85
2018-11-02T05:26:00.894Z,8.78
2018-11-02T05:28:28.192Z,9.25
2018-11-02T05:30:55.531Z,8.78
2018-11-02T05:33:22.789Z,9.30
2018-11-02T05:35:50.062Z,8.68
2018-11-02T05:38:17.396Z,9.28
2018-11-02T05:40:44.669Z,9.40
2018-11-02T05:43:11.941Z,9.78
2018-11-02T05:45:39.209Z,10.20
2018-11-02T05:48:06.498Z,10.43
2018-11-02T05:50:33.755Z,9.80
2018-11-02T05:53:01.114Z,10.90
2018-11-02T05:55:28.414Z,10.13
2018-11-02T05:57:55.683Z,10.85
2018-11-02T06:00:23.024Z,10.45
2018-11-02T06:02:50.279Z,11.85
2018-11-02T06:05:17.593Z,11.53
2018-11-02T06:07:44.944Z,10.82
2018-11-02T06:10:12.122Z,11.28
2018-11-02T06:12:39.347Z,10.35
2018-11-02T06:15:06.715Z,10.80
2018-11-02T06:17:33.988Z,10.10
2018-11-02T06:20:01.258Z,10.80
2018-11-02T06:22:28.530Z,10.40
2018-11-02T06:24:55.822Z,10.85
2018-11-02T06:27:23.101Z,10.32
2018-11-02T06:29:50.353Z,9.83
2018-11-02T06:32:17.761Z,10.75
2018-11-02T06:34:45.565Z,10.63
2018-11-02T06:37:13.323Z,10.13
2018-11-02T06:39:40.865Z,9.65
2018-11-02T06:42:08.335Z,9.30
2018-11-02T06:44:35.641Z,10.18
2018-11-02T06:47:02.914Z,10.03
2018-11-02T06:49:30.277Z,9.60
2018-11-02T06:51:57.649Z,10.03
2018-11-02T06:54:24.965Z,10.65
2018-11-02T06:56:52.267Z,10.48
2018-11-02T06:59:19.808Z,9.43
2018-11-02T07:01:46.979Z,10.20
2018-11-02T07:04:15.289Z,10.03
2018-11-02T07:06:42.526Z,9.83
2018-11-02T07:09:10.982Z,9.13
2018-11-02T07:11:38.242Z,9.10
2018-11-02T07:14:05.859Z,10.10
2018-11-02T07:16:33.203Z,10.23
2018-11-02T07:19:00.482Z,9.90
2018-11-02T07:21:27.783Z,9.28
2018-11-02T07:23:55.438Z,9.73
2018-11-02T07:26:22.949Z,10.13
2018-11-02T07:28:50.231Z,9.85
2018-11-02T07:31:17.610Z,10.20
2018-11-02T07:33:44.918Z,11.00
2018-11-02T07:36:12.195Z,10.43
2018-11-02T07:38:39.487Z,11.30
2018-11-02T07:41:07.375Z,11.50
2018-11-02T07:43:34.614Z,12.20
2018-11-02T07:46:01.876Z,13.13
2018-11-02T07:48:29.219Z,12.93
2018-11-02T07:50:56.470Z,12.53
2018-11-02T07:53:23.771Z,12.40
2018-11-02T07:55:51.145Z,13.00
2018-11-02T07:58:18.435Z,12.30
2018-11-02T08:00:45.722Z,12.25
2018-11-02T08:03:13.627Z,12.60
2018-11-02T08:05:40.883Z,12.45
2018-11-02T08:08:08.157Z,11.45
2018-11-02T08:10:35.443Z,11.80
2018-11-02T08:13:02.795Z,12.07
2018-11-02T08:15:30.152Z,11.93
2018-11-02T08:17:57.471Z,11.93
2018-11-02T08:20:24.710Z,11.95
2018-11-02T08:22:51.983Z,12.03
2018-11-02T08:25:19.274Z,12.33
2018-11-02T08:27:46.563Z,11.20
2018-11-02T08:30:14.515Z,11.65
2018-11-02T08:32:41.845Z,11.60
2018-11-02T08:35:10.936Z,11.25
2018-11-02T08:37:38.193Z,11.65
2018-11-02T08:40:06.192Z,11.30
2018-11-02T08:42:33.618Z,11.88
2018-11-02T08:45:01.087Z,11.05
2018-11-02T08:47:28.529Z,11.20
2018-11-02T08:49:56.051Z,10.72
2018-11-02T08:52:23.626Z,11.00
2018-11-02T08:54:51.019Z,10.05
2018-11-02T08:57:18.503Z,12.37
2018-11-02T08:59:46.843Z,10.88
2018-11-02T09:02:14.954Z,11.40
2018-11-02T09:04:42.454Z,10.72
2018-11-02T09:07:10.706Z,12.03
2018-11-02T09:09:37.986Z,11.22
2018-11-02T09:12:05.260Z,11.33
2018-11-02T09:14:32.498Z,11.12
2018-11-02T09:16:59.959Z,10.95
2018-11-02T09:19:27.449Z,12.20
2018-11-02T09:21:54.816Z,10.82
2018-11-02T09:24:22.290Z,11.10
2018-11-02T09:26:49.756Z,11.90
2018-11-02T09:29:17.263Z,11.95
2018-11-02T09:31:44.999Z,12.85
2018-11-02T09:34:16.083Z,10.82
2018-11-02T09:36:43.830Z,10.08
2018-11-02T09:39:12.110Z,11.83
2018-11-02T09:41:39.987Z,12.58
2018-11-02T09:44:07.342Z,11.83
2018-11-02T09:46:35.018Z,11.57
2018-11-02T09:49:02.574Z,12.73
2018-11-02T09:51:30.136Z,10.95
2018-11-02T09:53:57.627Z,11.90
2018-11-02T09:56:25.238Z,10.65
2018-11-02T09:58:53.640Z,11.75
2018-11-02T10:01:25.505Z,11.60
2018-11-02T10:03:52.798Z,12.98
2018-11-02T10:06:20.120Z,13.05
2018-11-02T10:08:47.500Z,12.45
2018-11-02T10:11:14.956Z,13.28
2018-11-02T10:13:42.266Z,13.10
2018-11-02T10:16:09.647Z,12.85
2018-11-02T10:18:38.854Z,12.58
2018-11-02T10:21:06.156Z,13.30
2018-11-02T10:23:33.453Z,12.88
2018-11-02T10:26:00.821Z,11.45
2018-11-02T10:28:31.419Z,11.45
2018-11-02T10:31:02.121Z,11.18
2018-11-02T10:33:29.437Z,10.28
2018-11-02T10:35:56.963Z,9.98
2018-11-02T10:38:24.207Z,10.75
2018-11-02T10:40:53.500Z,10.15
2018-11-02T10:43:26.234Z,9.30
2018-11-02T10:45:56.260Z,10.23
2018-11-02T10:48:25.212Z,10.75
2018-11-02T10:50:52.582Z,10.73
2018-11-02T10:53:20.092Z,10.58
2018-11-02T10:55:47.460Z,10.72
2018-11-02T10:58:20.228Z,10.25
2018-11-02T11:00:53.710Z,10.82
2018-11-02T11:03:21.411Z,10.50
2018-11-02T11:05:48.754Z,10.65
2018-11-02T11:08:16.053Z,11.40
2018-11-02T11:10:46.448Z,10.58
2018-11-02T11:13:14.872Z,11.50
2018-11-02T11:15:41.787Z,11.30
2018-11-02T11:18:09.105Z,11.10
2018-11-02T11:20:36.464Z,11.78
2018-11-02T11:23:03.798Z,11.35
2018-11-02T11:25:31.122Z,11.03
2018-11-02T11:28:00.191Z,10.80
2018-11-02T11:30:27.579Z,11.20
2018-11-02T11:32:54.879Z,10.30
2018-11-02T11:35:22.190Z,10.35
2018-11-02T11:37:49.544Z,9.93
2018-11-02T11:40:18.431Z,10.20
2018-11-02T11:42:48.395Z,11.00
2018-11-02T11:45:17.081Z,9.30
2018-11-02T11:47:44.706Z,9.20
2018-11-02T11:50:15.059Z,9.95
2018-11-02T11:52:46.646Z,10.70
2018-11-02T11:55:16.358Z,9.47
2018-11-02T11:57:44.535Z,10.48
2018-11-02T12:00:14.578Z,9.70
2018-11-02T12:02:42.145Z,8.80
2018-11-02T12:05:11.282Z,9.05
2018-11-02T12:07:38.617Z,10.38
2018-11-02T12:10:09.021Z,11.03
2018-11-02T12:12:36.268Z,10.65
2018-11-02T12:15:03.959Z,9.70
2018-11-02T12:17:31.215Z,9.98
2018-11-02T12:19:58.542Z,11.50
2018-11-02T12:22:26.285Z,10.08
2018-11-02T12:24:53.603Z,10.43
2018-11-02T12:27:20.896Z,9.70
2018-11-02T12:29:48.206Z,7.10
2018-11-02T12:32:15.473Z,6.37
2018-11-02T12:34:43.360Z,6.87
2018-11-02T12:37:11.083Z,5.33
2018-11-02T12:39:38.240Z,4.57
2018-11-02T12:42:05.518Z,4.40
2018-11-02T12:44:32.816Z,4.72
2018-11-02T12:47:00.095Z,3.85
2018-11-02T12:49:27.900Z,3.55
2018-11-02T12:51:54.850Z,3.45
2018-11-02T12:54:22.100Z,3.27
2018-11-02T12:56:49.362Z,3.40
2018-11-02T12:59:16.638Z,3.50
2018-11-02T13:01:44.447Z,3.62
2018-11-02T13:04:12.539Z,3.83
2018-11-02T13:06:40.031Z,4.25
2018-11-02T13:09:07.290Z,3.90
2018-11-02T13:11:34.609Z,4.80
2018-11-02T13:14:01.927Z,4.35
2018-11-02T13:16:29.220Z,5.45
2018-11-02T13:18:56.510Z,4.80
2018-11-02T13:21:23.755Z,5.03
2018-11-02T13:23:51.023Z,5.67
2018-11-02T13:26:18.431Z,5.20
2018-11-02T13:28:45.688Z,4.40
2018-11-02T13:31:13.329Z,4.10
2018-11-02T13:33:40.495Z,3.98
2018-11-02T13:36:07.772Z,3.65
2018-11-02T13:38:35.027Z,3.85
2018-11-02T13:41:02.322Z,3.65
2018-11-02T13:43:29.714Z,3.60
2018-11-02T13:45:57.086Z,3.45
2018-11-02T13:48:24.347Z,3.30
2018-11-02T13:50:51.810Z,3.45
2018-11-02T13:53:19.425Z,3.22
2018-11-02T13:55:46.736Z,3.50
2018-11-02T13:58:14.588Z,3.15
2018-11-02T14:00:41.843Z,3.83
2018-11-02T14:03:09.101Z,4.42
2018-11-02T14:05:36.358Z,3.42
2018-11-02T14:08:03.718Z,3.60
2018-11-02T14:10:31.069Z,4.37
2018-11-02T14:12:58.436Z,3.80
2018-11-02T14:15:29.574Z,4.33
2018-11-02T14:17:56.852Z,4.50
2018-11-02T14:20:24.325Z,4.25
2018-11-02T14:22:51.784Z,4.03
2018-11-02T14:25:19.058Z,3.65
2018-11-02T14:27:46.359Z,4.58
2018-11-02T14:30:18.291Z,4.70
2018-11-02T14:32:46.475Z,4.17
2018-11-02T14:35:14.660Z,4.50
2018-11-02T14:37:41.992Z,4.08
2018-11-02T14:40:09.613Z,4.87
2018-11-02T14:42:37.726Z,4.35
2018-11-02T14:45:06.315Z,4.22
2018-11-02T14:47:33.605Z,3.80
2018-11-02T14:50:00.899Z,3.85
2018-11-02T14:52:28.234Z,3.70
2018-11-02T14:54:55.513Z,3.67
2018-11-02T14:57:22.763Z,2.55
2018-11-02T14:59:50.078Z,2.50
2018-11-02T15:02:17.570Z,2.00
2018-11-02T15:04:45.158Z,1.72
2018-11-02T15:07:13.190Z,1.72
2018-11-02T15:09:40.630Z,1.80
2018-11-02T15:12:08.020Z,2.00
2018-11-02T15:14:35.492Z,2.40
2018-11-02T15:17:03.285Z,2.20
2018-11-02T15:19:30.819Z,1.80
2018-11-02T15:21:58.383Z,1.95
2018-11-02T15:24:25.830Z,1.70
2018-11-02T15:26:53.295Z,1.82
2018-11-02T15:29:20.788Z,2.10
2018-11-02T15:31:48.267Z,2.05
2018-11-02T15:34:15.804Z,2.42
2018-11-02T15:36:43.743Z,2.17
2018-11-02T15:39:12.167Z,2.90
2018-11-02T15:41:39.930Z,2.22
2018-11-02T15:44:07.540Z,2.08
2018-11-02T15:46:35.028Z,2.42
2018-11-02T15:49:02.516Z,2.50
2018-11-02T15:51:30.004Z,2.50
2018-11-02T15:53:57.516Z,2.20
2018-11-02T15:56:24.978Z,2.50
2018-11-02T15:58:52.486Z,2.42
2018-11-02T16:01:28.556Z,2.85
2018-11-02T16:03:56.017Z,10.63
2018-11-02T16:06:23.442Z,3.30
2018-11-02T16:08:50.995Z,2.52
2018-11-02T16:11:18.714Z,2.22
2018-11-02T16:13:46.357Z,2.20
2018-11-02T16:16:14.722Z,2.98
2018-11-02T16:18:42.217Z,2.65
2018-11-02T16:21:09.690Z,2.50
2018-11-02T16:23:37.451Z,2.60
2018-11-02T16:26:05.150Z,3.62
2018-11-02T16:28:32.769Z,4.65
2018-11-02T16:31:00.326Z,4.00
2018-11-02T16:33:31.523Z,4.67
2018-11-02T16:35:58.958Z,4.15
2018-11-02T16:38:26.247Z,3.62
2018-11-02T16:40:53.504Z,3.25
2018-11-02T16:43:21.036Z,3.55
2018-11-02T16:45:48.989Z,3.70
2018-11-02T16:48:16.738Z,3.40
2018-11-02T16:50:46.156Z,3.45
2018-11-02T16:53:13.787Z,3.70
2018-11-02T16:55:41.098Z,4.45
2018-11-02T16:58:08.476Z,4.47
2018-11-02T17:00:35.698Z,4.40
2018-11-02T17:03:03.003Z,4.47
2018-11-02T17:05:30.249Z,4.70
2018-11-02T17:07:57.539Z,4.08
2018-11-02T17:10:24.859Z,4.17
2018-11-02T17:12:52.434Z,4.53
2018-11-02T17:15:20.019Z,4.80
2018-11-02T17:17:47.509Z,4.33
2018-11-02T17:20:16.355Z,4.58
2018-11-02T17:22:43.902Z,5.20
2018-11-02T17:25:11.998Z,5.08
2018-11-02T17:27:39.688Z,5.25
2018-11-02T17:30:09.527Z,4.83
2018-11-02T17:32:37.035Z,5.30
2018-11-02T17:35:04.583Z,5.00
2018-11-02T17:37:32.038Z,5.33
2018-11-02T17:39:59.518Z,6.83
2018-11-02T17:42:27.120Z,6.60
2018-11-02T17:44:55.159Z,5.65
2018-11-02T17:47:22.887Z,5.97
2018-11-02T17:49:50.345Z,7.60
2018-11-02T17:52:17.785Z,7.80
2018-11-02T17:54:46.715Z,8.33
2018-11-02T17:57:14.740Z,8.65
2018-11-02T17:59:42.014Z,9.25
2018-11-02T18:02:09.475Z,10.00
2018-11-02T18:04:36.931Z,9.78
2018-11-02T18:07:04.983Z,9.73
2018-11-02T18:09:32.534Z,9.85
2018-11-02T18:11:59.992Z,9.48
2018-11-02T18:14:27.478Z,9.48
2018-11-02T18:16:54.851Z,10.50
2018-11-02T18:19:22.364Z,10.38
2018-11-02T18:21:49.806Z,11.45
2018-11-02T18:24:17.369Z,11.10
2018-11-02T18:26:44.774Z,11.43
2018-11-02T18:29:12.230Z,11.03
2018-11-02T18:31:39.695Z,10.25
2018-11-02T18:34:07.131Z,9.95
2018-11-02T18:36:34.602Z,11.35
2018-11-02T18:39:02.086Z,10.78
2018-11-02T18:41:29.544Z,10.43
2018-11-02T18:43:56.983Z,10.55
2018-11-02T18:46:24.419Z,12.35
2018-11-02T18:48:51.906Z,9.08
2018-11-02T18:51:19.516Z,11.22
2018-11-02T18:53:47.075Z,8.85
2018-11-02T18:56:15.451Z,10.10
2018-11-02T18:58:42.907Z,9.05
2018-11-02T19:01:10.338Z,9.85
2018-11-02T19:03:37.794Z,8.90
2018-11-02T19:06:05.339Z,9.15
2018-11-02T19:08:32.815Z,8.95
2018-11-02T19:11:00.270Z,9.00
2018-11-02T19:13:27.817Z,9.23
2018-11-02T19:15:55.282Z,8.80
2018-11-02T19:18:22.678Z,7.72
2018-11-02T19:20:50.221Z,8.28
2018-11-02T19:23:17.716Z,7.83
2018-11-02T19:25:45.280Z,8.53
2018-11-02T19:28:13.387Z,7.72
2018-11-02T19:30:40.858Z,7.70
2018-11-02T19:33:08.397Z,7.40
2018-11-02T19:35:35.769Z,6.70
2018-11-02T19:38:03.252Z,6.70
2018-11-02T19:40:30.686Z,7.33
2018-11-02T19:42:58.114Z,6.95
2018-11-02T19:45:25.566Z,6.80
2018-11-02T19:47:54.798Z,6.20
2018-11-02T19:50:22.389Z,5.90
2018-11-02T19:52:49.992Z,6.10
2018-11-02T19:55:17.650Z,5.90
2018-11-02T19:57:45.037Z,6.30
2018-11-02T20:00:14.036Z,6.25
2018-11-02T20:02:41.853Z,7.22
2018-11-02T20:05:11.190Z,6.30
2018-11-02T20:07:39.224Z,6.50
2018-11-02T20:10:07.252Z,7.10
2018-11-02T20:12:34.727Z,6.85
2018-11-02T20:15:02.434Z,8.20
2018-11-02T20:17:29.917Z,7.30
2018-11-02T20:19:57.420Z,6.83
2018-11-02T20:22:24.866Z,7.35
2018-11-02T20:24:52.280Z,6.92
2018-11-02T20:27:19.836Z,7.22
2018-11-02T20:29:47.301Z,8.20
2018-11-02T20:32:14.997Z,7.37
2018-11-02T20:34:43.350Z,8.95
2018-11-02T20:37:10.771Z,9.68
2018-11-02T20:39:38.292Z,10.00
2018-11-02T20:42:05.894Z,10.35
2018-11-02T20:44:33.307Z,10.18
2018-11-02T20:47:00.730Z,10.90
2018-11-02T20:49:28.822Z,10.43
2018-11-02T20:51:56.273Z,9.65
2018-11-02T20:54:23.694Z,9.15
2018-11-02T20:56:51.127Z,8.65
2018-11-02T20:59:18.625Z,8.88
2018-11-02T21:01:46.167Z,9.15
2018-11-02T21:04:14.556Z,8.78
2018-11-02T21:06:42.010Z,8.65
2018-11-02T21:09:11.199Z,8.95
2018-11-02T21:11:38.547Z,8.18
2018-11-02T21:14:05.993Z,8.45
2018-11-02T21:16:33.472Z,8.10
2018-11-02T21:19:00.901Z,7.50
2018-11-02T21:21:28.365Z,8.00
2018-11-02T21:23:55.786Z,7.60
2018-11-02T21:26:23.214Z,7.97
2018-11-02T21:28:50.678Z,7.90
2018-11-02T21:31:18.148Z,8.10
2018-11-02T21:33:45.709Z,7.35
2018-11-02T21:36:13.822Z,6.78
2018-11-02T21:38:41.378Z,6.87
2018-11-02T21:41:08.777Z,6.78
2018-11-02T21:43:36.215Z,7.22
2018-11-02T21:46:03.727Z,6.75
2018-11-02T21:48:31.178Z,6.60
2018-11-02T21:50:58.635Z,7.30
2018-11-02T21:53:26.092Z,6.80
2018-11-02T21:55:53.499Z,7.45
2018-11-02T21:58:21.006Z,7.05
2018-11-02T22:00:48.458Z,7.08
2018-11-02T22:03:16.398Z,6.40
2018-11-02T22:05:44.481Z,6.33
2018-11-02T22:08:11.903Z,6.47
2018-11-02T22:10:40.002Z,7.10
2018-11-02T22:13:07.711Z,7.15
2018-11-02T22:15:35.818Z,6.85
2018-11-02T22:18:03.832Z,7.22
2018-11-02T22:20:35.546Z,8.33
2018-11-02T22:23:04.046Z,7.15
2018-11-02T22:25:32.238Z,7.65
2018-11-02T22:28:00.168Z,7.58
2018-11-02T22:30:28.076Z,8.25
2018-11-02T22:32:55.807Z,7.17
2018-11-02T22:35:23.696Z,7.72
2018-11-02T22:37:51.683Z,7.55
2018-11-02T22:40:19.254Z,7.35
2018-11-02T22:42:47.188Z,7.37
2018-11-02T22:45:15.528Z,8.30
2018-11-02T22:48:46.442Z,7.22
2018-11-02T22:51:14.415Z,7.58
2018-11-02T22:53:41.779Z,7.80
2018-11-02T22:56:09.750Z,7.28
2018-11-02T22:58:37.742Z,8.15
2018-11-02T23:01:10.763Z,7.25
2018-11-02T23:03:38.025Z,7.37
2018-11-02T23:06:05.326Z,7.75
2018-11-02T23:08:32.787Z,8.15
2018-11-02T23:11:00.007Z,7.62
2018-11-02T23:13:27.247Z,7.70
2018-11-02T23:15:54.489Z,8.03
2018-11-02T23:18:22.074Z,7.65
2018-11-02T23:20:49.334Z,7.65
2018-11-02T23:23:16.634Z,8.40
2018-11-02T23:25:44.346Z,7.40
2018-11-02T23:28:11.612Z,7.05
2018-11-02T23:30:38.838Z,7.55
2018-11-02T23:33:06.130Z,7.15
2018-11-02T23:35:33.374Z,8.00
2018-11-02T23:38:00.638Z,8.25
2018-11-02T23:40:27.899Z,7.83
2018-11-02T23:42:55.142Z,8.83
2018-11-02T23:45:22.559Z,7.58
2018-11-02T23:47:55.894Z,7.60
2018-11-02T23:50:23.473Z,7.75
2018-11-02T23:52:50.967Z,7.62
2018-11-02T23:55:18.671Z,6.90
2018-11-02T23:57:46.119Z,6.97
